sensor_id;sensor_type;location;lat;lon;timestamp;P1;durP1;ratioP1;P2;durP2;ratioP2
43429;SDS011;29028;43.234;27.896;2022-12-29T14:42:06;16.48;;;6.82;;
43429;SDS011;29028;43.234;27.896;2022-12-29T14:42:35;13.63;;;7.50;;
43429;SDS011;29028;43.234;27.896;2022-12-29T14:43:00;12.00;;;7.85;;
43429;SDS011;29028;43.234;27.896;2022-12-29T14:43:23;13.55;;;8.18;;
43429;SDS011;29028;43.234;27.896;2022-12-29T14:43:53;16.85;;;8.43;;
43429;SDS011;29028;43.234;27.896;2022-12-29T14:44:19;13.05;;;8.52;;
43429;SDS011;29028;43.234;27.896;2022-12-29T14:44:47;13.05;;;8.73;;
43429;SDS011;29028;43.234;27.896;2022-12-29T14:45:22;18.77;;;9.45;;
43429;SDS011;29028;43.234;27.896;2022-12-29T14:45:51;13.88;;;8.45;;
43429;SDS011;29028;43.234;27.896;2022-12-29T14:46:15;14.63;;;8.90;;
43429;SDS011;29028;43.234;27.896;2022-12-29T14:47:22;19.65;;;10.20;;
43429;SDS011;29028;43.234;27.896;2022-12-29T14:47:48;20.38;;;9.43;;
43429;SDS011;29028;43.234;27.896;2022-12-29T14:48:21;19.42;;;10.20;;
43429;SDS011;29028;43.234;27.896;2022-12-29T14:48:54;19.85;;;10.80;;
43429;SDS011;29028;43.234;27.896;2022-12-29T14:49:18;25.52;;;11.75;;
43429;SDS011;29028;43.234;27.896;2022-12-29T14:49:42;22.67;;;12.18;;
43429;SDS011;29028;43.234;27.896;2022-12-29T14:50:06;21.33;;;12.00;;
43429;SDS011;29028;43.234;27.896;2022-12-29T14:50:34;27.83;;;13.52;;
43429;SDS011;29028;43.234;27.896;2022-12-29T14:51:01;22.58;;;12.88;;
43429;SDS011;29028;43.234;27.896;2022-12-29T14:51:30;24.85;;;14.65;;
43429;SDS011;29028;43.234;27.896;2022-12-29T14:52:03;27.25;;;16.55;;
43429;SDS011;29028;43.234;27.896;2022-12-29T14:52:27;30.80;;;19.38;;
43429;SDS011;29028;43.234;27.896;2022-12-29T14:52:50;27.02;;;16.50;;
43429;SDS011;29028;43.234;27.896;2022-12-29T14:55:54;19.35;;;12.90;;
43429;SDS011;29028;43.234;27.896;2022-12-29T14:56:16;17.40;;;11.45;;
43429;SDS011;29028;43.234;27.896;2022-12-29T14:56:38;17.95;;;10.95;;
43429;SDS011;29028;43.234;27.896;2022-12-29T14:57:02;16.52;;;11.05;;
43429;SDS011;29028;43.234;27.896;2022-12-29T14:57:29;17.77;;;11.68;;
43429;SDS011;29028;43.234;27.896;2022-12-29T14:57:57;17.23;;;11.43;;
43429;SDS011;29028;43.234;27.896;2022-12-29T14:58:27;16.42;;;11.48;;
43429;SDS011;29028;43.234;27.896;2022-12-29T14:58:50;17.42;;;12.00;;
43429;SDS011;29028;43.234;27.896;2022-12-29T14:59:13;18.13;;;11.68;;
43429;SDS011;29028;43.234;27.896;2022-12-29T14:59:34;17.25;;;11.30;;
43429;SDS011;29028;43.234;27.896;2022-12-29T14:59:59;18.13;;;11.35;;
43429;SDS011;29028;43.234;27.896;2022-12-29T15:00:26;15.27;;;11.02;;
43429;SDS011;29028;43.234;27.896;2022-12-29T15:00:51;16.02;;;11.00;;
43429;SDS011;29028;43.234;27.896;2022-12-29T15:01:18;14.27;;;10.85;;
43429;SDS011;29028;43.234;27.896;2022-12-29T15:01:49;17.10;;;11.48;;
43429;SDS011;29028;43.234;27.896;2022-12-29T15:02:14;15.18;;;11.60;;
43429;SDS011;29028;43.234;27.896;2022-12-29T15:02:39;15.20;;;10.95;;
43429;SDS011;29028;43.234;27.896;2022-12-29T15:03:05;14.93;;;10.93;;
43429;SDS011;29028;43.234;27.896;2022-12-29T15:03:29;14.68;;;11.35;;
43429;SDS011;29028;43.234;27.896;2022-12-29T15:03:53;15.40;;;11.90;;
43429;SDS011;29028;43.234;27.896;2022-12-29T15:04:19;17.80;;;11.98;;
43429;SDS011;29028;43.234;27.896;2022-12-29T15:04:43;17.42;;;12.40;;
43429;SDS011;29028;43.234;27.896;2022-12-29T15:05:05;19.77;;;12.77;;
43429;SDS011;29028;43.234;27.896;2022-12-29T15:05:42;15.10;;;11.88;;
43429;SDS011;29028;43.234;27.896;2022-12-29T15:06:05;15.50;;;11.82;;
43429;SDS011;29028;43.234;27.896;2022-12-29T15:06:29;15.27;;;12.45;;
43429;SDS011;29028;43.234;27.896;2022-12-29T15:06:51;16.48;;;11.82;;
43429;SDS011;29028;43.234;27.896;2022-12-29T15:07:13;13.60;;;10.80;;
43429;SDS011;29028;43.234;27.896;2022-12-29T15:07:38;15.48;;;11.93;;
43429;SDS011;29028;43.234;27.896;2022-12-29T15:08:00;14.82;;;11.52;;
43429;SDS011;29028;43.234;27.896;2022-12-29T15:08:24;15.45;;;11.63;;
43429;SDS011;29028;43.234;27.896;2022-12-29T15:08:49;15.18;;;11.02;;
43429;SDS011;29028;43.234;27.896;2022-12-29T15:09:17;15.65;;;10.68;;
43429;SDS011;29028;43.234;27.896;2022-12-29T15:09:46;14.38;;;10.88;;
43429;SDS011;29028;43.234;27.896;2022-12-29T15:10:13;17.85;;;11.20;;
43429;SDS011;29028;43.234;27.896;2022-12-29T15:10:39;17.58;;;10.93;;
43429;SDS011;29028;43.234;27.896;2022-12-29T15:11:04;15.75;;;11.13;;
43429;SDS011;29028;43.234;27.896;2022-12-29T15:11:41;14.57;;;10.23;;
43429;SDS011;29028;43.234;27.896;2022-12-29T15:12:11;13.55;;;10.45;;
43429;SDS011;29028;43.234;27.896;2022-12-29T15:12:43;16.58;;;11.25;;
43429;SDS011;29028;43.234;27.896;2022-12-29T15:13:14;15.20;;;10.98;;
43429;SDS011;29028;43.234;27.896;2022-12-29T15:13:38;16.05;;;11.20;;
43429;SDS011;29028;43.234;27.896;2022-12-29T15:14:01;18.38;;;11.68;;
43429;SDS011;29028;43.234;27.896;2022-12-29T15:14:35;18.65;;;11.88;;
43429;SDS011;29028;43.234;27.896;2022-12-29T15:14:59;14.43;;;10.57;;
43429;SDS011;29028;43.234;27.896;2022-12-29T15:15:22;13.05;;;9.63;;
43429;SDS011;29028;43.234;27.896;2022-12-29T15:15:44;12.15;;;9.13;;
43429;SDS011;29028;43.234;27.896;2022-12-29T15:16:05;13.90;;;9.60;;
43429;SDS011;29028;43.234;27.896;2022-12-29T15:16:43;14.98;;;9.55;;
43429;SDS011;29028;43.234;27.896;2022-12-29T15:17:09;14.27;;;9.85;;
43429;SDS011;29028;43.234;27.896;2022-12-29T15:17:32;13.57;;;9.82;;
43429;SDS011;29028;43.234;27.896;2022-12-29T15:17:54;12.77;;;9.52;;
43429;SDS011;29028;43.234;27.896;2022-12-29T15:18:23;14.57;;;9.80;;
43429;SDS011;29028;43.234;27.896;2022-12-29T15:18:45;14.30;;;10.35;;
43429;SDS011;29028;43.234;27.896;2022-12-29T15:19:19;16.30;;;10.40;;
43429;SDS011;29028;43.234;27.896;2022-12-29T15:19:41;13.15;;;9.55;;
43429;SDS011;29028;43.234;27.896;2022-12-29T15:20:13;11.83;;;9.10;;
43429;SDS011;29028;43.234;27.896;2022-12-29T15:20:38;14.05;;;9.45;;
43429;SDS011;29028;43.234;27.896;2022-12-29T15:20:59;13.82;;;9.27;;
43429;SDS011;29028;43.234;27.896;2022-12-29T15:21:23;12.87;;;9.63;;
43429;SDS011;29028;43.234;27.896;2022-12-29T15:21:47;13.88;;;9.30;;
43429;SDS011;29028;43.234;27.896;2022-12-29T15:22:08;14.38;;;9.73;;
43429;SDS011;29028;43.234;27.896;2022-12-29T15:22:29;14.00;;;9.73;;
43429;SDS011;29028;43.234;27.896;2022-12-29T15:22:53;13.10;;;9.27;;
43429;SDS011;29028;43.234;27.896;2022-12-29T15:23:17;14.55;;;9.82;;
43429;SDS011;29028;43.234;27.896;2022-12-29T15:23:38;13.50;;;9.85;;
43429;SDS011;29028;43.234;27.896;2022-12-29T15:23:59;13.43;;;9.38;;
43429;SDS011;29028;43.234;27.896;2022-12-29T15:24:20;13.23;;;9.75;;
43429;SDS011;29028;43.234;27.896;2022-12-29T15:24:43;13.35;;;10.02;;
43429;SDS011;29028;43.234;27.896;2022-12-29T15:25:12;16.67;;;10.90;;
43429;SDS011;29028;43.234;27.896;2022-12-29T15:25:35;15.95;;;11.18;;
43429;SDS011;29028;43.234;27.896;2022-12-29T15:25:57;16.75;;;11.60;;
43429;SDS011;29028;43.234;27.896;2022-12-29T15:26:20;16.17;;;11.07;;
43429;SDS011;29028;43.234;27.896;2022-12-29T15:26:44;14.45;;;10.13;;
43429;SDS011;29028;43.234;27.896;2022-12-29T15:27:06;13.07;;;9.95;;
43429;SDS011;29028;43.234;27.896;2022-12-29T15:27:27;15.75;;;10.07;;
43429;SDS011;29028;43.234;27.896;2022-12-29T15:27:51;14.38;;;9.90;;
43429;SDS011;29028;43.234;27.896;2022-12-29T15:28:14;12.38;;;9.25;;
43429;SDS011;29028;43.234;27.896;2022-12-29T15:28:36;12.88;;;9.13;;
43429;SDS011;29028;43.234;27.896;2022-12-29T15:28:59;12.05;;;9.15;;
43429;SDS011;29028;43.234;27.896;2022-12-29T15:29:30;12.93;;;9.77;;
43429;SDS011;29028;43.234;27.896;2022-12-29T15:29:56;12.68;;;9.85;;
43429;SDS011;29028;43.234;27.896;2022-12-29T15:30:18;13.55;;;9.88;;
43429;SDS011;29028;43.234;27.896;2022-12-29T15:30:49;13.65;;;9.45;;
43429;SDS011;29028;43.234;27.896;2022-12-29T15:31:12;13.75;;;9.90;;
43429;SDS011;29028;43.234;27.896;2022-12-29T15:31:35;14.40;;;9.88;;
43429;SDS011;29028;43.234;27.896;2022-12-29T15:32:47;12.70;;;9.20;;
43429;SDS011;29028;43.234;27.896;2022-12-29T15:33:17;12.02;;;8.88;;
43429;SDS011;29028;43.234;27.896;2022-12-29T15:33:40;11.90;;;9.23;;
43429;SDS011;29028;43.234;27.896;2022-12-29T15:34:03;15.18;;;9.68;;
43429;SDS011;29028;43.234;27.896;2022-12-29T15:34:31;13.88;;;9.38;;
43429;SDS011;29028;43.234;27.896;2022-12-29T15:34:53;13.13;;;9.77;;
43429;SDS011;29028;43.234;27.896;2022-12-29T15:35:24;13.60;;;10.00;;
43429;SDS011;29028;43.234;27.896;2022-12-29T15:35:51;13.13;;;9.68;;
43429;SDS011;29028;43.234;27.896;2022-12-29T15:36:13;13.00;;;9.27;;
43429;SDS011;29028;43.234;27.896;2022-12-29T15:36:40;14.02;;;9.10;;
43429;SDS011;29028;43.234;27.896;2022-12-29T15:37:05;13.68;;;9.10;;
43429;SDS011;29028;43.234;27.896;2022-12-29T15:37:27;15.45;;;9.30;;
43429;SDS011;29028;43.234;27.896;2022-12-29T15:37:53;13.27;;;8.70;;
43429;SDS011;29028;43.234;27.896;2022-12-29T15:38:14;13.05;;;8.85;;
43429;SDS011;29028;43.234;27.896;2022-12-29T15:38:36;12.23;;;8.68;;
43429;SDS011;29028;43.234;27.896;2022-12-29T15:38:57;11.30;;;8.48;;
43429;SDS011;29028;43.234;27.896;2022-12-29T15:39:19;11.45;;;8.80;;
43429;SDS011;29028;43.234;27.896;2022-12-29T15:39:40;11.35;;;8.85;;
43429;SDS011;29028;43.234;27.896;2022-12-29T15:40:01;11.95;;;8.88;;
43429;SDS011;29028;43.234;27.896;2022-12-29T15:40:24;12.10;;;8.70;;
43429;SDS011;29028;43.234;27.896;2022-12-29T15:40:48;12.10;;;8.73;;
43429;SDS011;29028;43.234;27.896;2022-12-29T15:41:18;13.05;;;8.88;;
43429;SDS011;29028;43.234;27.896;2022-12-29T15:41:46;13.30;;;9.07;;
43429;SDS011;29028;43.234;27.896;2022-12-29T15:42:27;13.77;;;8.70;;
43429;SDS011;29028;43.234;27.896;2022-12-29T15:43:07;12.93;;;9.13;;
43429;SDS011;29028;43.234;27.896;2022-12-29T15:43:43;12.32;;;9.45;;
43429;SDS011;29028;43.234;27.896;2022-12-29T15:44:14;14.27;;;9.48;;
43429;SDS011;29028;43.234;27.896;2022-12-29T15:44:42;13.27;;;9.00;;
43429;SDS011;29028;43.234;27.896;2022-12-29T15:45:04;12.73;;;9.00;;
43429;SDS011;29028;43.234;27.896;2022-12-29T15:45:29;14.00;;;8.40;;
43429;SDS011;29028;43.234;27.896;2022-12-29T15:45:54;13.27;;;8.90;;
43429;SDS011;29028;43.234;27.896;2022-12-29T15:46:15;12.23;;;8.55;;
43429;SDS011;29028;43.234;27.896;2022-12-29T15:46:36;11.82;;;8.23;;
43429;SDS011;29028;43.234;27.896;2022-12-29T15:47:01;12.00;;;8.13;;
43429;SDS011;29028;43.234;27.896;2022-12-29T15:47:24;13.38;;;8.15;;
43429;SDS011;29028;43.234;27.896;2022-12-29T15:47:46;13.00;;;8.35;;
43429;SDS011;29028;43.234;27.896;2022-12-29T15:48:13;11.57;;;8.50;;
43429;SDS011;29028;43.234;27.896;2022-12-29T15:48:38;12.50;;;8.65;;
43429;SDS011;29028;43.234;27.896;2022-12-29T15:49:00;11.85;;;8.35;;
43429;SDS011;29028;43.234;27.896;2022-12-29T15:49:27;10.45;;;8.02;;
43429;SDS011;29028;43.234;27.896;2022-12-29T15:49:48;11.82;;;8.02;;
43429;SDS011;29028;43.234;27.896;2022-12-29T15:50:14;11.18;;;8.15;;
43429;SDS011;29028;43.234;27.896;2022-12-29T15:50:41;9.93;;;7.97;;
43429;SDS011;29028;43.234;27.896;2022-12-29T15:51:04;11.27;;;8.40;;
43429;SDS011;29028;43.234;27.896;2022-12-29T15:51:38;12.40;;;8.85;;
43429;SDS011;29028;43.234;27.896;2022-12-29T15:52:00;11.45;;;8.48;;
43429;SDS011;29028;43.234;27.896;2022-12-29T15:52:26;10.82;;;8.18;;
43429;SDS011;29028;43.234;27.896;2022-12-29T15:52:48;10.75;;;8.35;;
43429;SDS011;29028;43.234;27.896;2022-12-29T15:53:11;10.88;;;8.65;;
43429;SDS011;29028;43.234;27.896;2022-12-29T15:53:36;11.05;;;8.02;;
43429;SDS011;29028;43.234;27.896;2022-12-29T15:53:57;12.13;;;8.23;;
43429;SDS011;29028;43.234;27.896;2022-12-29T15:54:19;12.80;;;8.27;;
43429;SDS011;29028;43.234;27.896;2022-12-29T15:54:42;11.27;;;8.13;;
43429;SDS011;29028;43.234;27.896;2022-12-29T15:55:04;11.90;;;8.20;;
43429;SDS011;29028;43.234;27.896;2022-12-29T15:55:27;11.48;;;8.07;;
43429;SDS011;29028;43.234;27.896;2022-12-29T15:55:51;12.68;;;8.35;;
43429;SDS011;29028;43.234;27.896;2022-12-29T15:56:12;11.40;;;8.48;;
43429;SDS011;29028;43.234;27.896;2022-12-29T15:56:34;11.73;;;8.35;;
43429;SDS011;29028;43.234;27.896;2022-12-29T15:56:55;12.00;;;8.50;;
43429;SDS011;29028;43.234;27.896;2022-12-29T15:57:19;10.93;;;8.65;;
43429;SDS011;29028;43.234;27.896;2022-12-29T15:57:43;11.77;;;8.93;;
43429;SDS011;29028;43.234;27.896;2022-12-29T15:58:17;12.35;;;9.38;;
43429;SDS011;29028;43.234;27.896;2022-12-29T15:58:41;14.00;;;10.25;;
43429;SDS011;29028;43.234;27.896;2022-12-29T15:59:04;15.13;;;11.43;;
43429;SDS011;29028;43.234;27.896;2022-12-29T15:59:26;17.50;;;11.25;;
43429;SDS011;29028;43.234;27.896;2022-12-29T15:59:48;14.75;;;10.68;;
43429;SDS011;29028;43.234;27.896;2022-12-29T16:00:20;13.80;;;11.02;;
43429;SDS011;29028;43.234;27.896;2022-12-29T16:00:46;13.25;;;10.93;;
43429;SDS011;29028;43.234;27.896;2022-12-29T16:01:16;15.52;;;11.60;;
43429;SDS011;29028;43.234;27.896;2022-12-29T16:01:38;16.55;;;12.57;;
43429;SDS011;29028;43.234;27.896;2022-12-29T16:02:00;18.15;;;12.65;;
43429;SDS011;29028;43.234;27.896;2022-12-29T16:02:22;17.20;;;12.88;;
43429;SDS011;29028;43.234;27.896;2022-12-29T16:02:45;14.45;;;11.88;;
43429;SDS011;29028;43.234;27.896;2022-12-29T16:03:06;15.07;;;11.68;;
43429;SDS011;29028;43.234;27.896;2022-12-29T16:03:35;17.60;;;11.98;;
43429;SDS011;29028;43.234;27.896;2022-12-29T16:03:57;17.83;;;11.90;;
43429;SDS011;29028;43.234;27.896;2022-12-29T16:04:18;14.40;;;11.65;;
43429;SDS011;29028;43.234;27.896;2022-12-29T16:04:39;15.30;;;11.32;;
43429;SDS011;29028;43.234;27.896;2022-12-29T16:05:08;16.45;;;11.70;;
43429;SDS011;29028;43.234;27.896;2022-12-29T16:05:32;19.15;;;13.73;;
43429;SDS011;29028;43.234;27.896;2022-12-29T16:05:55;23.75;;;17.40;;
43429;SDS011;29028;43.234;27.896;2022-12-29T16:06:58;22.10;;;16.52;;
43429;SDS011;29028;43.234;27.896;2022-12-29T16:07:23;23.77;;;16.88;;
43429;SDS011;29028;43.234;27.896;2022-12-29T16:07:52;24.63;;;18.75;;
43429;SDS011;29028;43.234;27.896;2022-12-29T16:08:20;25.80;;;17.90;;
43429;SDS011;29028;43.234;27.896;2022-12-29T16:08:46;23.98;;;17.20;;
43429;SDS011;29028;43.234;27.896;2022-12-29T16:09:17;26.02;;;18.90;;
43429;SDS011;29028;43.234;27.896;2022-12-29T16:09:49;28.77;;;19.80;;
43429;SDS011;29028;43.234;27.896;2022-12-29T16:10:22;26.73;;;17.92;;
43429;SDS011;29028;43.234;27.896;2022-12-29T16:10:46;28.00;;;18.30;;
43429;SDS011;29028;43.234;27.896;2022-12-29T16:11:17;27.05;;;17.90;;
43429;SDS011;29028;43.234;27.896;2022-12-29T16:11:43;27.92;;;18.70;;
43429;SDS011;29028;43.234;27.896;2022-12-29T16:12:14;28.55;;;19.42;;
43429;SDS011;29028;43.234;27.896;2022-12-29T16:12:37;31.40;;;22.13;;
43429;SDS011;29028;43.234;27.896;2022-12-29T16:13:02;29.97;;;20.43;;
43429;SDS011;29028;43.234;27.896;2022-12-29T16:13:27;29.60;;;19.52;;
43429;SDS011;29028;43.234;27.896;2022-12-29T16:13:52;25.60;;;18.98;;
43429;SDS011;29028;43.234;27.896;2022-12-29T16:14:15;25.75;;;19.88;;
43429;SDS011;29028;43.234;27.896;2022-12-29T16:14:40;27.83;;;20.15;;
43429;SDS011;29028;43.234;27.896;2022-12-29T16:15:04;27.83;;;19.63;;
43429;SDS011;29028;43.234;27.896;2022-12-29T16:15:28;24.77;;;18.00;;
43429;SDS011;29028;43.234;27.896;2022-12-29T16:15:49;25.75;;;18.55;;
43429;SDS011;29028;43.234;27.896;2022-12-29T16:16:17;26.10;;;19.02;;
43429;SDS011;29028;43.234;27.896;2022-12-29T16:16:43;25.02;;;18.58;;
43429;SDS011;29028;43.234;27.896;2022-12-29T16:17:05;23.42;;;16.63;;
43429;SDS011;29028;43.234;27.896;2022-12-29T16:17:30;22.77;;;15.57;;
43429;SDS011;29028;43.234;27.896;2022-12-29T16:17:55;22.55;;;15.73;;
43429;SDS011;29028;43.234;27.896;2022-12-29T16:18:20;22.33;;;16.35;;
43429;SDS011;29028;43.234;27.896;2022-12-29T16:18:45;23.10;;;17.42;;
43429;SDS011;29028;43.234;27.896;2022-12-29T16:19:09;24.40;;;18.10;;
43429;SDS011;29028;43.234;27.896;2022-12-29T16:19:34;23.10;;;18.17;;
43429;SDS011;29028;43.234;27.896;2022-12-29T16:19:57;23.05;;;18.08;;
43429;SDS011;29028;43.234;27.896;2022-12-29T16:20:22;22.88;;;16.83;;
43429;SDS011;29028;43.234;27.896;2022-12-29T16:20:45;19.23;;;15.32;;
43429;SDS011;29028;43.234;27.896;2022-12-29T16:21:12;18.42;;;15.43;;
43429;SDS011;29028;43.234;27.896;2022-12-29T16:21:36;20.77;;;15.40;;
43429;SDS011;29028;43.234;27.896;2022-12-29T16:21:58;19.92;;;15.20;;
43429;SDS011;29028;43.234;27.896;2022-12-29T16:22:24;20.98;;;15.70;;
43429;SDS011;29028;43.234;27.896;2022-12-29T16:22:49;22.63;;;15.77;;
43429;SDS011;29028;43.234;27.896;2022-12-29T16:23:15;23.60;;;16.38;;
43429;SDS011;29028;43.234;27.896;2022-12-29T16:23:41;21.38;;;16.13;;
43429;SDS011;29028;43.234;27.896;2022-12-29T16:24:08;21.98;;;16.25;;
43429;SDS011;29028;43.234;27.896;2022-12-29T16:24:34;22.00;;;16.90;;
43429;SDS011;29028;43.234;27.896;2022-12-29T16:25:00;22.58;;;16.58;;
43429;SDS011;29028;43.234;27.896;2022-12-29T16:25:27;22.55;;;17.20;;
43429;SDS011;29028;43.234;27.896;2022-12-29T16:25:51;21.33;;;16.67;;
43429;SDS011;29028;43.234;27.896;2022-12-29T16:26:15;23.13;;;16.50;;
43429;SDS011;29028;43.234;27.896;2022-12-29T16:26:37;22.15;;;16.40;;
43429;SDS011;29028;43.234;27.896;2022-12-29T16:26:59;22.10;;;17.13;;
43429;SDS011;29028;43.234;27.896;2022-12-29T16:27:29;22.48;;;17.27;;
43429;SDS011;29028;43.234;27.896;2022-12-29T16:27:54;19.75;;;15.98;;
43429;SDS011;29028;43.234;27.896;2022-12-29T16:28:16;19.65;;;14.85;;
43429;SDS011;29028;43.234;27.896;2022-12-29T16:28:42;17.50;;;14.55;;
43429;SDS011;29028;43.234;27.896;2022-12-29T16:29:04;18.25;;;14.48;;
43429;SDS011;29028;43.234;27.896;2022-12-29T16:29:27;18.67;;;14.45;;
43429;SDS011;29028;43.234;27.896;2022-12-29T16:29:51;19.25;;;14.25;;
43429;SDS011;29028;43.234;27.896;2022-12-29T16:30:16;17.23;;;14.48;;
43429;SDS011;29028;43.234;27.896;2022-12-29T16:30:40;18.33;;;14.32;;
43429;SDS011;29028;43.234;27.896;2022-12-29T16:31:03;18.23;;;13.98;;
43429;SDS011;29028;43.234;27.896;2022-12-29T16:31:26;18.60;;;13.68;;
43429;SDS011;29028;43.234;27.896;2022-12-29T16:31:54;16.88;;;13.60;;
43429;SDS011;29028;43.234;27.896;2022-12-29T16:32:24;15.98;;;12.77;;
43429;SDS011;29028;43.234;27.896;2022-12-29T16:32:46;18.00;;;13.43;;
43429;SDS011;29028;43.234;27.896;2022-12-29T16:33:58;16.50;;;12.95;;
43429;SDS011;29028;43.234;27.896;2022-12-29T16:34:31;16.20;;;12.55;;
43429;SDS011;29028;43.234;27.896;2022-12-29T16:35:01;16.45;;;12.88;;
43429;SDS011;29028;43.234;27.896;2022-12-29T16:35:38;16.63;;;12.88;;
43429;SDS011;29028;43.234;27.896;2022-12-29T16:36:00;16.95;;;12.93;;
43429;SDS011;29028;43.234;27.896;2022-12-29T16:36:31;16.42;;;12.57;;
43429;SDS011;29028;43.234;27.896;2022-12-29T16:36:55;16.88;;;12.90;;
43429;SDS011;29028;43.234;27.896;2022-12-29T16:37:27;17.50;;;12.77;;
43429;SDS011;29028;43.234;27.896;2022-12-29T16:38:06;16.25;;;13.00;;
43429;SDS011;29028;43.234;27.896;2022-12-29T16:38:33;16.88;;;13.82;;
43429;SDS011;29028;43.234;27.896;2022-12-29T16:39:49;16.13;;;13.35;;
43429;SDS011;29028;43.234;27.896;2022-12-29T16:40:26;20.50;;;15.30;;
43429;SDS011;29028;43.234;27.896;2022-12-29T16:40:50;27.20;;;19.52;;
43429;SDS011;29028;43.234;27.896;2022-12-29T16:41:25;26.65;;;19.58;;
43429;SDS011;29028;43.234;27.896;2022-12-29T16:41:49;30.80;;;20.58;;
43429;SDS011;29028;43.234;27.896;2022-12-29T16:42:56;26.73;;;21.38;;
43429;SDS011;29028;43.234;27.896;2022-12-29T16:43:25;27.42;;;21.15;;
43429;SDS011;29028;43.234;27.896;2022-12-29T16:43:48;29.02;;;20.20;;
43429;SDS011;29028;43.234;27.896;2022-12-29T16:44:33;23.48;;;18.02;;
43429;SDS011;29028;43.234;27.896;2022-12-29T16:44:54;22.98;;;17.65;;
43429;SDS011;29028;43.234;27.896;2022-12-29T16:46:39;22.55;;;18.77;;
43429;SDS011;29028;43.234;27.896;2022-12-29T16:47:19;22.27;;;16.92;;
43429;SDS011;29028;43.234;27.896;2022-12-29T16:47:41;21.20;;;16.30;;
43429;SDS011;29028;43.234;27.896;2022-12-29T16:48:09;20.73;;;16.30;;
43429;SDS011;29028;43.234;27.896;2022-12-29T16:48:45;21.15;;;16.48;;
43429;SDS011;29028;43.234;27.896;2022-12-29T16:49:08;20.90;;;15.65;;
43429;SDS011;29028;43.234;27.896;2022-12-29T16:49:38;19.35;;;15.35;;
43429;SDS011;29028;43.234;27.896;2022-12-29T16:50:10;19.27;;;15.27;;
43429;SDS011;29028;43.234;27.896;2022-12-29T16:50:32;20.17;;;15.10;;
43429;SDS011;29028;43.234;27.896;2022-12-29T16:51:00;19.85;;;16.20;;
43429;SDS011;29028;43.234;27.896;2022-12-29T16:51:28;20.02;;;16.30;;
43429;SDS011;29028;43.234;27.896;2022-12-29T16:51:52;19.40;;;15.95;;
43429;SDS011;29028;43.234;27.896;2022-12-29T16:52:17;20.98;;;15.70;;
43429;SDS011;29028;43.234;27.896;2022-12-29T16:52:40;20.33;;;16.13;;
43429;SDS011;29028;43.234;27.896;2022-12-29T16:53:01;20.67;;;16.42;;
43429;SDS011;29028;43.234;27.896;2022-12-29T16:53:25;21.08;;;15.50;;
43429;SDS011;29028;43.234;27.896;2022-12-29T16:53:49;23.05;;;16.48;;
43429;SDS011;29028;43.234;27.896;2022-12-29T16:54:17;20.63;;;16.25;;
43429;SDS011;29028;43.234;27.896;2022-12-29T16:54:40;22.52;;;16.83;;
43429;SDS011;29028;43.234;27.896;2022-12-29T16:55:01;23.45;;;17.33;;
43429;SDS011;29028;43.234;27.896;2022-12-29T16:55:23;23.00;;;17.30;;
43429;SDS011;29028;43.234;27.896;2022-12-29T16:55:46;20.25;;;16.55;;
43429;SDS011;29028;43.234;27.896;2022-12-29T16:56:08;20.48;;;16.13;;
43429;SDS011;29028;43.234;27.896;2022-12-29T16:56:35;25.40;;;18.13;;
43429;SDS011;29028;43.234;27.896;2022-12-29T16:56:59;25.27;;;19.17;;
43429;SDS011;29028;43.234;27.896;2022-12-29T16:57:21;25.63;;;19.73;;
43429;SDS011;29028;43.234;27.896;2022-12-29T16:57:47;26.10;;;19.95;;
43429;SDS011;29028;43.234;27.896;2022-12-29T16:58:15;27.17;;;20.02;;
43429;SDS011;29028;43.234;27.896;2022-12-29T16:58:41;23.60;;;18.77;;
43429;SDS011;29028;43.234;27.896;2022-12-29T16:59:25;21.20;;;17.98;;
43429;SDS011;29028;43.234;27.896;2022-12-29T16:59:53;22.40;;;17.38;;
43429;SDS011;29028;43.234;27.896;2022-12-29T17:00:18;22.50;;;16.45;;
43429;SDS011;29028;43.234;27.896;2022-12-29T17:00:41;19.52;;;15.88;;
43429;SDS011;29028;43.234;27.896;2022-12-29T17:01:05;18.98;;;15.43;;
43429;SDS011;29028;43.234;27.896;2022-12-29T17:01:34;20.52;;;15.73;;
43429;SDS011;29028;43.234;27.896;2022-12-29T17:01:57;19.60;;;15.88;;
43429;SDS011;29028;43.234;27.896;2022-12-29T17:02:20;20.20;;;16.33;;
43429;SDS011;29028;43.234;27.896;2022-12-29T17:02:46;19.88;;;15.52;;
43429;SDS011;29028;43.234;27.896;2022-12-29T17:03:09;20.30;;;15.70;;
43429;SDS011;29028;43.234;27.896;2022-12-29T17:03:32;19.73;;;16.13;;
43429;SDS011;29028;43.234;27.896;2022-12-29T17:03:57;19.33;;;16.10;;
43429;SDS011;29028;43.234;27.896;2022-12-29T17:04:21;18.63;;;16.50;;
43429;SDS011;29028;43.234;27.896;2022-12-29T17:04:42;18.42;;;15.88;;
43429;SDS011;29028;43.234;27.896;2022-12-29T17:05:08;26.23;;;18.80;;
43429;SDS011;29028;43.234;27.896;2022-12-29T17:05:33;42.08;;;29.45;;
43429;SDS011;29028;43.234;27.896;2022-12-29T17:05:54;50.85;;;35.85;;
43429;SDS011;29028;43.234;27.896;2022-12-29T17:06:18;49.72;;;34.83;;
43429;SDS011;29028;43.234;27.896;2022-12-29T17:06:40;52.03;;;35.53;;
43429;SDS011;29028;43.234;27.896;2022-12-29T17:07:02;43.03;;;30.73;;
43429;SDS011;29028;43.234;27.896;2022-12-29T17:07:23;35.38;;;25.40;;
43429;SDS011;29028;43.234;27.896;2022-12-29T17:07:45;35.80;;;25.15;;
43429;SDS011;29028;43.234;27.896;2022-12-29T17:08:15;37.70;;;26.02;;
43429;SDS011;29028;43.234;27.896;2022-12-29T17:08:43;32.47;;;23.20;;
43429;SDS011;29028;43.234;27.896;2022-12-29T17:09:15;35.10;;;26.70;;
43429;SDS011;29028;43.234;27.896;2022-12-29T17:09:38;30.02;;;22.77;;
43429;SDS011;29028;43.234;27.896;2022-12-29T17:09:59;24.63;;;18.90;;
43429;SDS011;29028;43.234;27.896;2022-12-29T17:10:20;20.95;;;16.23;;
43429;SDS011;29028;43.234;27.896;2022-12-29T17:11:02;18.85;;;14.40;;
43429;SDS011;29028;43.234;27.896;2022-12-29T17:11:41;18.75;;;14.80;;
43429;SDS011;29028;43.234;27.896;2022-12-29T17:12:15;19.48;;;16.05;;
43429;SDS011;29028;43.234;27.896;2022-12-29T17:12:38;20.48;;;17.15;;
43429;SDS011;29028;43.234;27.896;2022-12-29T17:13:01;21.80;;;17.55;;
43429;SDS011;29028;43.234;27.896;2022-12-29T17:13:22;20.70;;;17.27;;
43429;SDS011;29028;43.234;27.896;2022-12-29T17:13:43;20.15;;;16.83;;
43429;SDS011;29028;43.234;27.896;2022-12-29T17:14:04;21.27;;;17.25;;
43429;SDS011;29028;43.234;27.896;2022-12-29T17:14:31;21.35;;;16.73;;
43429;SDS011;29028;43.234;27.896;2022-12-29T17:15:00;21.83;;;16.58;;
43429;SDS011;29028;43.234;27.896;2022-12-29T17:15:25;20.25;;;16.05;;
43429;SDS011;29028;43.234;27.896;2022-12-29T17:15:52;18.25;;;15.57;;
43429;SDS011;29028;43.234;27.896;2022-12-29T17:16:12;19.80;;;16.17;;
43429;SDS011;29028;43.234;27.896;2022-12-29T17:16:33;21.80;;;17.88;;
43429;SDS011;29028;43.234;27.896;2022-12-29T17:16:54;22.53;;;17.70;;
43429;SDS011;29028;43.234;27.896;2022-12-29T17:17:16;22.15;;;16.65;;
43429;SDS011;29028;43.234;27.896;2022-12-29T17:17:42;20.00;;;16.92;;
43429;SDS011;29028;43.234;27.896;2022-12-29T17:18:06;19.00;;;16.00;;
43429;SDS011;29028;43.234;27.896;2022-12-29T17:18:29;22.17;;;16.55;;